createdAt,value
2018-10-06T00:01:54.920Z,99.90
2018-10-06T00:04:27.662Z,99.90
2018-10-06T00:07:00.499Z,99.90
2018-10-06T00:09:33.194Z,99.90
2018-10-06T00:12:06.014Z,99.90
2018-10-06T00:14:38.836Z,99.90
2018-10-06T00:17:11.771Z,99.90
2018-10-06T00:19:44.631Z,99.90
2018-10-06T00:22:17.515Z,99.90
2018-10-06T00:24:50.754Z,99.90
2018-10-06T00:27:24.385Z,99.90
2018-10-06T00:29:57.138Z,99.90
2018-10-06T00:32:29.934Z,99.90
2018-10-06T00:35:02.672Z,99.90
2018-10-06T00:37:35.358Z,99.90
2018-10-06T00:40:08.279Z,99.90
2018-10-06T00:42:41.110Z,99.90
2018-10-06T00:45:14.130Z,99.90
2018-10-06T00:47:46.977Z,99.90
2018-10-06T00:50:19.831Z,99.90
2018-10-06T00:52:52.720Z,99.90
2018-10-06T00:55:25.715Z,99.90
2018-10-06T00:57:59.304Z,99.90
2018-10-06T01:00:32.905Z,99.90
2018-10-06T01:03:05.924Z,99.90
2018-10-06T01:05:38.779Z,99.90
2018-10-06T01:08:11.911Z,99.90
2018-10-06T01:10:44.738Z,99.90
2018-10-06T01:13:17.507Z,99.90
2018-10-06T01:15:50.294Z,99.90
2018-10-06T01:18:23.508Z,99.90
2018-10-06T01:20:57.037Z,99.90
2018-10-06T01:23:30.551Z,99.90
2018-10-06T01:26:03.755Z,99.90
2018-10-06T01:28:36.737Z,99.90
2018-10-06T01:31:09.902Z,99.90
2018-10-06T01:33:42.853Z,99.90
2018-10-06T01:36:15.558Z,99.90
2018-10-06T01:38:48.333Z,99.90
2018-10-06T01:41:21.071Z,99.90
2018-10-06T01:43:54.016Z,99.90
2018-10-06T01:46:27.030Z,99.90
2018-10-06T01:49:00.398Z,99.90
2018-10-06T01:51:33.651Z,99.90
2018-10-06T01:54:06.561Z,99.90
2018-10-06T01:56:39.450Z,99.90
2018-10-06T01:59:12.386Z,99.90
2018-10-06T02:01:45.114Z,99.90
2018-10-06T02:04:22.482Z,99.90
2018-10-06T02:06:55.559Z,99.90
2018-10-06T02:09:28.680Z,99.90
2018-10-06T02:12:01.659Z,99.90
2018-10-06T02:14:34.972Z,99.90
2018-10-06T02:17:08.222Z,99.90
2018-10-06T02:19:41.126Z,99.90
2018-10-06T02:22:14.042Z,99.90
2018-10-06T02:24:46.762Z,99.90
2018-10-06T02:27:19.642Z,99.90
2018-10-06T02:29:52.408Z,99.90
2018-10-06T02:32:25.263Z,99.90
2018-10-06T02:34:59.399Z,99.90
2018-10-06T02:37:32.554Z,99.90
2018-10-06T02:40:05.818Z,99.90
2018-10-06T02:42:38.738Z,99.90
2018-10-06T02:45:11.607Z,99.90
2018-10-06T02:47:44.505Z,99.90
2018-10-06T02:50:17.390Z,99.90
2018-10-06T02:52:50.297Z,99.90
2018-10-06T02:55:23.210Z,99.90
2018-10-06T02:57:56.326Z,99.90
2018-10-06T03:00:29.525Z,99.90
2018-10-06T03:03:02.636Z,99.90
2018-10-06T03:05:35.626Z,99.90
2018-10-06T03:08:08.656Z,99.90
2018-10-06T03:10:41.734Z,99.90
2018-10-06T03:13:14.430Z,99.90
2018-10-06T03:15:47.363Z,99.90
2018-10-06T03:18:20.063Z,99.90
2018-10-06T03:20:52.894Z,99.90
2018-10-06T03:23:26.078Z,99.90
2018-10-06T03:25:59.218Z,99.90
2018-10-06T03:28:32.408Z,99.90
2018-10-06T03:31:05.357Z,99.90
2018-10-06T03:33:38.400Z,99.90
2018-10-06T03:36:11.302Z,99.90
2018-10-06T03:38:44.325Z,99.90
2018-10-06T03:41:17.246Z,99.90
2018-10-06T03:43:49.994Z,99.90
2018-10-06T03:46:22.810Z,99.90
2018-10-06T03:48:55.786Z,99.90
2018-10-06T03:51:29.126Z,99.90
2018-10-06T03:54:02.225Z,99.90
2018-10-06T03:56:35.211Z,99.90
2018-10-06T03:59:08.241Z,99.90
2018-10-06T04:01:41.341Z,99.90
2018-10-06T04:04:14.058Z,99.90
2018-10-06T04:06:46.863Z,99.90
2018-10-06T04:09:19.740Z,99.90
2018-10-06T04:11:52.912Z,99.90
2018-10-06T04:14:26.074Z,99.90
2018-10-06T04:16:59.243Z,99.90
2018-10-06T04:19:32.478Z,99.90
2018-10-06T04:22:05.664Z,99.90
2018-10-06T04:24:38.738Z,99.90
2018-10-06T04:27:11.686Z,99.90
2018-10-06T04:29:44.381Z,99.90
2018-10-06T04:32:17.106Z,99.90
2018-10-06T04:34:49.847Z,99.90
2018-10-06T04:37:22.601Z,99.90
2018-10-06T04:39:55.476Z,99.90
2018-10-06T04:42:28.615Z,99.90
2018-10-06T04:45:01.777Z,99.90
2018-10-06T04:47:34.920Z,99.90
2018-10-06T04:50:07.814Z,99.90
2018-10-06T04:52:40.802Z,99.90
2018-10-06T04:55:13.603Z,99.90
2018-10-06T04:57:46.466Z,99.90
2018-10-06T05:00:19.205Z,99.90
2018-10-06T05:02:52.080Z,99.90
2018-10-06T05:05:25.020Z,99.90
2018-10-06T05:07:58.137Z,99.90
2018-10-06T05:10:31.308Z,99.90
2018-10-06T05:13:04.410Z,99.90
2018-10-06T05:15:37.666Z,99.90
2018-10-06T05:18:10.597Z,99.90
2018-10-06T05:20:43.418Z,99.90
2018-10-06T05:23:16.298Z,99.90
2018-10-06T05:25:49.833Z,99.90
2018-10-06T05:28:22.694Z,99.90
2018-10-06T05:30:55.574Z,99.90
2018-10-06T05:33:29.306Z,99.90
2018-10-06T05:36:02.502Z,99.90
2018-10-06T05:38:35.452Z,99.90
2018-10-06T05:41:08.287Z,99.90
2018-10-06T05:43:41.156Z,99.90
2018-10-06T05:46:14.033Z,99.90
2018-10-06T05:48:46.875Z,99.90
2018-10-06T05:51:19.558Z,99.90
2018-10-06T05:53:52.685Z,99.90
2018-10-06T05:56:25.845Z,99.90
2018-10-06T05:58:59.080Z,99.90
2018-10-06T06:01:32.363Z,99.90
2018-10-06T06:04:05.360Z,99.90
2018-10-06T06:06:38.126Z,99.90
2018-10-06T06:09:11.145Z,99.90
2018-10-06T06:11:44.038Z,99.90
2018-10-06T06:14:16.754Z,99.90
2018-10-06T06:16:49.525Z,99.90
2018-10-06T06:19:22.684Z,99.90
2018-10-06T06:21:55.482Z,99.90
2018-10-06T06:24:28.626Z,99.90
2018-10-06T06:27:02.094Z,99.90
2018-10-06T06:29:35.135Z,99.90
2018-10-06T06:32:08.289Z,99.90
2018-10-06T06:34:41.254Z,99.90
2018-10-06T06:37:14.149Z,99.90
2018-10-06T06:39:46.889Z,99.90
2018-10-06T06:42:19.853Z,99.90
2018-10-06T06:44:52.915Z,99.90
2018-10-06T06:47:25.766Z,99.90
2018-10-06T06:49:59.061Z,99.90
2018-10-06T06:52:32.057Z,99.90
2018-10-06T06:55:05.436Z,99.90
2018-10-06T06:57:38.286Z,99.90
2018-10-06T07:00:11.418Z,99.90
2018-10-06T07:02:44.166Z,99.90
2018-10-06T07:05:21.445Z,99.90
2018-10-06T07:07:55.226Z,99.90
2018-10-06T07:10:28.581Z,99.90
2018-10-06T07:13:01.816Z,99.90
2018-10-06T07:15:34.704Z,99.90
2018-10-06T07:18:07.677Z,99.90
2018-10-06T07:20:40.477Z,99.90
2018-10-06T07:23:13.434Z,99.90
2018-10-06T07:25:46.187Z,99.90
2018-10-06T07:28:19.090Z,99.90
2018-10-06T07:30:51.775Z,99.90
2018-10-06T07:33:24.852Z,99.90
2018-10-06T07:35:58.211Z,99.90
2018-10-06T07:38:31.121Z,99.90
2018-10-06T07:41:04.261Z,99.90
2018-10-06T07:43:37.116Z,99.60
2018-10-06T07:46:09.920Z,99.90
2018-10-06T07:48:42.618Z,99.90
2018-10-06T07:51:15.483Z,99.90
2018-10-06T07:53:48.413Z,99.90
2018-10-06T07:56:21.190Z,99.70
2018-10-06T07:58:54.236Z,98.10
2018-10-06T08:01:27.163Z,96.70
2018-10-06T08:04:00.646Z,95.20
2018-10-06T08:06:33.790Z,94.80
2018-10-06T08:09:07.016Z,94.90
2018-10-06T08:11:39.811Z,94.60
2018-10-06T08:14:19.353Z,93.80
2018-10-06T08:16:52.271Z,91.50
2018-10-06T08:19:25.121Z,90.30
2018-10-06T08:21:58.254Z,90.00
2018-10-06T08:24:31.255Z,88.60
2018-10-06T08:27:04.156Z,88.30
2018-10-06T08:29:37.223Z,84.20
2018-10-06T08:32:10.064Z,82.10
2018-10-06T08:34:42.874Z,80.80
2018-10-06T08:37:15.690Z,78.80
2018-10-06T08:39:48.445Z,78.30
2018-10-06T08:42:21.358Z,78.00
2018-10-06T08:44:54.294Z,78.10
2018-10-06T08:47:27.119Z,76.30
2018-10-06T08:50:00.240Z,76.90
2018-10-06T08:52:33.437Z,75.60
2018-10-06T08:55:06.459Z,74.50
2018-10-06T08:57:39.337Z,72.40
2018-10-06T09:00:12.129Z,70.30
2018-10-06T09:02:44.886Z,69.30
2018-10-06T09:05:17.626Z,70.50
2018-10-06T09:07:50.341Z,68.70
2018-10-06T09:10:23.124Z,69.10
2018-10-06T09:12:55.998Z,70.80
2018-10-06T09:15:28.978Z,70.70
2018-10-06T09:18:02.187Z,70.60
2018-10-06T09:20:35.172Z,71.50
2018-10-06T09:23:08.086Z,69.90
2018-10-06T09:25:41.087Z,69.80
2018-10-06T09:28:13.987Z,69.00
2018-10-06T09:30:46.731Z,70.20
2018-10-06T09:33:19.691Z,69.10
2018-10-06T09:35:52.666Z,69.30
2018-10-06T09:38:25.553Z,68.90
2018-10-06T09:40:58.623Z,68.40
2018-10-06T09:43:31.822Z,68.90
2018-10-06T09:46:05.047Z,68.20
2018-10-06T09:48:37.886Z,68.30
2018-10-06T09:51:10.822Z,68.40
2018-10-06T09:53:43.760Z,69.60
2018-10-06T09:56:16.486Z,69.90
2018-10-06T09:58:49.278Z,70.50
2018-10-06T10:01:27.948Z,71.70
2018-10-06T10:04:07.010Z,72.50
2018-10-06T10:06:40.287Z,73.90
2018-10-06T10:09:14.436Z,73.30
2018-10-06T10:11:47.197Z,72.10
2018-10-06T10:14:19.886Z,71.70
2018-10-06T10:16:52.602Z,71.50
2018-10-06T10:19:25.633Z,71.60
2018-10-06T10:21:58.974Z,72.60
2018-10-06T10:24:32.256Z,71.90
2018-10-06T10:27:05.155Z,70.80
2018-10-06T10:29:37.990Z,71.90
2018-10-06T10:32:11.053Z,73.50
2018-10-06T10:34:43.926Z,72.90
2018-10-06T10:37:16.747Z,71.50
2018-10-06T10:39:49.642Z,72.90
2018-10-06T10:42:22.341Z,70.50
2018-10-06T10:44:55.366Z,70.00
2018-10-06T10:47:28.744Z,69.40
2018-10-06T10:50:01.780Z,67.60
2018-10-06T10:52:34.819Z,66.60
2018-10-06T10:55:07.930Z,65.20
2018-10-06T10:57:40.802Z,65.00
2018-10-06T11:00:13.592Z,65.50
2018-10-06T11:02:46.278Z,65.60
2018-10-06T11:05:19.120Z,64.30
2018-10-06T11:07:51.950Z,64.80
2018-10-06T11:10:24.963Z,63.50
2018-10-06T11:12:58.312Z,63.70
2018-10-06T11:15:31.137Z,63.40
2018-10-06T11:18:04.206Z,61.70
2018-10-06T11:20:37.008Z,62.60
2018-10-06T11:23:09.751Z,61.10
2018-10-06T11:25:42.559Z,60.40
2018-10-06T11:28:15.468Z,60.20
2018-10-06T11:30:48.302Z,60.40
2018-10-06T11:33:21.418Z,59.40
2018-10-06T11:35:55.083Z,58.10
2018-10-06T11:38:28.314Z,58.30
2018-10-06T11:41:01.798Z,56.90
2018-10-06T11:43:34.730Z,56.60
2018-10-06T11:46:07.707Z,57.50
2018-10-06T11:48:40.722Z,57.50
2018-10-06T11:51:13.704Z,57.00
2018-10-06T11:53:46.450Z,56.70
2018-10-06T11:56:19.171Z,56.30
2018-10-06T11:58:52.113Z,56.10
2018-10-06T12:01:25.292Z,55.40
2018-10-06T12:03:58.474Z,55.20
2018-10-06T12:06:31.433Z,55.30
2018-10-06T12:09:05.772Z,55.30
2018-10-06T12:11:38.615Z,55.50
2018-10-06T12:14:11.526Z,54.80
2018-10-06T12:16:44.385Z,55.40
2018-10-06T12:19:17.332Z,55.10
2018-10-06T12:21:50.433Z,54.30
2018-10-06T12:24:23.358Z,54.20
2018-10-06T12:26:56.425Z,54.30
2018-10-06T12:29:29.277Z,55.00
2018-10-06T12:32:02.202Z,55.20
2018-10-06T12:34:35.113Z,56.00
2018-10-06T12:37:07.810Z,56.30
2018-10-06T12:39:40.636Z,56.50
2018-10-06T12:42:13.547Z,57.70
2018-10-06T12:44:46.183Z,57.30
2018-10-06T12:47:18.930Z,58.00
2018-10-06T12:49:58.881Z,58.90
2018-10-06T12:52:31.858Z,57.80
2018-10-06T12:55:04.793Z,57.60
2018-10-06T12:57:37.627Z,55.50
2018-10-06T13:00:10.427Z,54.10
2018-10-06T13:02:43.231Z,54.10
2018-10-06T13:05:15.914Z,53.90
2018-10-06T13:07:48.850Z,53.50
2018-10-06T13:10:21.861Z,54.70
2018-10-06T13:12:54.904Z,54.40
2018-10-06T13:15:28.291Z,54.20
2018-10-06T13:18:01.496Z,54.70
2018-10-06T13:20:34.706Z,54.10
2018-10-06T13:23:07.477Z,53.50
2018-10-06T13:25:40.339Z,55.80
2018-10-06T13:28:13.222Z,57.90
2018-10-06T13:30:46.202Z,59.30
2018-10-06T13:33:19.050Z,60.40
2018-10-06T13:35:52.180Z,61.80
2018-10-06T13:38:25.665Z,62.80
2018-10-06T13:40:58.492Z,64.40
2018-10-06T13:43:31.314Z,64.80
2018-10-06T13:46:04.529Z,64.70
2018-10-06T13:48:38.741Z,64.80
2018-10-06T13:51:12.521Z,64.80
2018-10-06T13:53:45.582Z,64.40
2018-10-06T13:56:18.462Z,61.90
2018-10-06T13:58:51.695Z,62.00
2018-10-06T14:01:24.410Z,64.50
2018-10-06T14:03:57.240Z,65.30
2018-10-06T14:06:34.016Z,66.10
2018-10-06T14:09:09.404Z,67.40
2018-10-06T14:11:42.261Z,67.80
2018-10-06T14:14:15.285Z,69.50
2018-10-06T14:16:48.299Z,70.00
2018-10-06T14:19:21.312Z,70.00
2018-10-06T14:21:54.203Z,70.60
2018-10-06T14:24:27.873Z,71.10
2018-10-06T14:27:06.371Z,71.40
2018-10-06T14:29:39.577Z,71.80
2018-10-06T14:32:12.968Z,73.00
2018-10-06T14:34:46.055Z,73.10
2018-10-06T14:37:19.206Z,74.00
2018-10-06T14:39:52.095Z,74.20
2018-10-06T14:42:25.078Z,74.10
2018-10-06T14:44:57.818Z,75.60
2018-10-06T14:47:30.563Z,75.90
2018-10-06T14:50:03.471Z,75.60
2018-10-06T14:52:36.413Z,75.80
2018-10-06T14:55:09.467Z,76.50
2018-10-06T14:57:42.818Z,76.90
2018-10-06T15:00:16.197Z,76.00
2018-10-06T15:02:49.617Z,76.60
2018-10-06T15:05:22.562Z,76.60
2018-10-06T15:07:55.314Z,76.30
2018-10-06T15:10:28.188Z,76.70
2018-10-06T15:13:01.015Z,76.60
2018-10-06T15:15:33.705Z,76.90
2018-10-06T15:18:06.475Z,76.80
2018-10-06T15:20:39.167Z,77.20
2018-10-06T15:23:12.708Z,77.40
2018-10-06T15:25:45.717Z,77.30
2018-10-06T15:28:18.834Z,78.30
2018-10-06T15:30:52.899Z,77.60
2018-10-06T15:33:25.823Z,77.90
2018-10-06T15:35:58.620Z,78.00
2018-10-06T15:38:38.214Z,78.10
2018-10-06T15:41:11.071Z,77.80
2018-10-06T15:43:44.087Z,78.30
2018-10-06T15:46:16.838Z,78.60
2018-10-06T15:48:49.747Z,78.20
2018-10-06T15:51:22.700Z,78.60
2018-10-06T15:53:55.532Z,78.80
2018-10-06T15:56:28.440Z,78.10
2018-10-06T15:59:01.343Z,78.60
2018-10-06T16:01:34.299Z,79.20
2018-10-06T16:04:07.195Z,78.60
2018-10-06T16:06:40.862Z,79.00
2018-10-06T16:09:13.919Z,79.30
2018-10-06T16:11:46.598Z,79.50
2018-10-06T16:14:19.367Z,80.50
2018-10-06T16:16:52.020Z,80.80
2018-10-06T16:19:24.806Z,82.00
2018-10-06T16:21:57.602Z,81.50
2018-10-06T16:24:30.409Z,81.90
2018-10-06T16:27:03.267Z,82.20
2018-10-06T16:29:36.247Z,82.60
2018-10-06T16:32:09.159Z,83.30
2018-10-06T16:34:42.030Z,83.70
2018-10-06T16:37:14.812Z,84.30
2018-10-06T16:39:47.530Z,85.20
2018-10-06T16:42:20.275Z,86.00
2018-10-06T16:44:53.039Z,86.90
2018-10-06T16:47:25.927Z,87.80
2018-10-06T16:49:58.722Z,88.50
2018-10-06T16:52:31.425Z,89.10
2018-10-06T16:55:04.285Z,89.30
2018-10-06T16:57:37.017Z,89.60
2018-10-06T17:00:10.031Z,89.70
2018-10-06T17:02:42.793Z,89.80
2018-10-06T17:05:15.582Z,90.00
2018-10-06T17:07:48.539Z,90.10
2018-10-06T17:10:21.313Z,90.10
2018-10-06T17:12:54.209Z,90.30
2018-10-06T17:15:27.200Z,90.40
2018-10-06T17:18:00.122Z,90.70
2018-10-06T17:20:32.966Z,90.80
2018-10-06T17:23:05.933Z,90.90
2018-10-06T17:25:38.870Z,90.90
2018-10-06T17:28:11.618Z,91.00
2018-10-06T17:30:44.391Z,91.00
2018-10-06T17:33:17.154Z,91.10
2018-10-06T17:35:50.130Z,91.10
2018-10-06T17:38:23.206Z,91.10
2018-10-06T17:40:56.127Z,91.30
2018-10-06T17:43:30.134Z,91.40
2018-10-06T17:46:02.948Z,91.60
2018-10-06T17:48:35.742Z,91.80
2018-10-06T17:51:08.519Z,92.00
2018-10-06T17:53:41.261Z,92.20
2018-10-06T17:56:14.065Z,92.30
2018-10-06T17:58:46.976Z,92.70
2018-10-06T18:01:19.791Z,93.10
2018-10-06T18:03:52.733Z,93.20
2018-10-06T18:06:25.436Z,93.40
2018-10-06T18:08:58.278Z,93.60
2018-10-06T18:11:31.069Z,93.90
2018-10-06T18:14:04.001Z,93.80
2018-10-06T18:16:36.799Z,94.00
2018-10-06T18:19:09.558Z,94.20
2018-10-06T18:21:42.439Z,94.00
2018-10-06T18:24:15.347Z,94.00
2018-10-06T18:26:48.175Z,94.20
2018-10-06T18:29:21.201Z,94.50
2018-10-06T18:31:53.820Z,94.70
2018-10-06T18:34:26.554Z,95.10
2018-10-06T18:36:59.594Z,95.40
2018-10-06T18:39:32.201Z,95.60
2018-10-06T18:42:05.014Z,95.70
2018-10-06T18:44:37.942Z,95.90
2018-10-06T18:47:10.762Z,96.10
2018-10-06T18:49:43.618Z,96.20
2018-10-06T18:52:16.529Z,96.20
2018-10-06T18:54:49.289Z,96.30
2018-10-06T18:57:22.122Z,96.40
2018-10-06T18:59:54.865Z,96.50
2018-10-06T19:02:27.760Z,96.90
2018-10-06T19:05:00.582Z,97.20
2018-10-06T19:07:33.262Z,97.50
2018-10-06T19:10:06.204Z,97.70
2018-10-06T19:12:41.151Z,98.00
2018-10-06T19:15:13.867Z,98.20
2018-10-06T19:17:46.666Z,98.50
2018-10-06T19:20:19.418Z,98.60
2018-10-06T19:22:52.408Z,98.70
2018-10-06T19:25:25.288Z,99.00
2018-10-06T19:27:58.058Z,99.20
2018-10-06T19:30:31.014Z,99.40
2018-10-06T19:33:03.862Z,99.50
2018-10-06T19:35:36.752Z,99.60
2018-10-06T19:38:09.617Z,99.90
2018-10-06T19:40:42.486Z,99.90
2018-10-06T19:43:15.406Z,99.90
2018-10-06T19:45:48.307Z,99.90
2018-10-06T19:48:21.181Z,99.90
2018-10-06T19:50:53.924Z,99.90
2018-10-06T19:53:26.738Z,99.90
2018-10-06T19:55:59.719Z,99.90
2018-10-06T19:58:32.642Z,99.90
2018-10-06T20:01:05.542Z,99.90
2018-10-06T20:03:38.360Z,99.90
2018-10-06T20:06:11.129Z,99.90
2018-10-06T20:08:44.010Z,99.90
2018-10-06T20:11:17.016Z,99.90
2018-10-06T20:13:49.962Z,99.90
2018-10-06T20:16:22.898Z,99.90
2018-10-06T20:18:55.776Z,99.90
2018-10-06T20:21:28.561Z,99.90
2018-10-06T20:24:01.546Z,99.90
2018-10-06T20:26:34.447Z,99.90
2018-10-06T20:29:07.194Z,99.90
2018-10-06T20:31:40.026Z,99.90
2018-10-06T20:34:12.971Z,99.90
2018-10-06T20:36:45.820Z,99.90
2018-10-06T20:39:18.550Z,99.90
2018-10-06T20:41:51.392Z,99.90
2018-10-06T20:44:24.181Z,99.90
2018-10-06T20:46:57.115Z,99.90
2018-10-06T20:49:29.963Z,99.90
2018-10-06T20:52:02.695Z,99.90
2018-10-06T20:54:35.467Z,99.90
2018-10-06T20:57:08.213Z,99.90
2018-10-06T20:59:41.047Z,99.90
2018-10-06T21:02:14.078Z,99.90
2018-10-06T21:04:46.868Z,99.90
2018-10-06T21:07:20.886Z,99.90
2018-10-06T21:09:53.686Z,99.90
2018-10-06T21:12:26.389Z,99.90
2018-10-06T21:14:59.322Z,99.90
2018-10-06T21:17:32.511Z,99.90
2018-10-06T21:20:05.242Z,99.90
2018-10-06T21:22:38.059Z,99.90
2018-10-06T21:25:11.007Z,99.90
2018-10-06T21:27:43.898Z,99.90
2018-10-06T21:30:16.866Z,99.90
2018-10-06T21:32:49.692Z,99.90
2018-10-06T21:35:22.661Z,99.90
2018-10-06T21:37:55.612Z,99.90
2018-10-06T21:40:28.350Z,99.90
2018-10-06T21:43:01.130Z,99.90
2018-10-06T21:45:33.975Z,99.90
2018-10-06T21:48:06.886Z,99.90
2018-10-06T21:50:39.621Z,99.90
2018-10-06T21:53:12.557Z,99.90
2018-10-06T21:55:45.408Z,99.90
2018-10-06T21:58:18.351Z,99.90
2018-10-06T22:00:57.015Z,99.90
2018-10-06T22:03:30.334Z,99.90
2018-10-06T22:06:03.239Z,99.90
2018-10-06T22:08:36.227Z,99.90
2018-10-06T22:11:08.974Z,99.90
2018-10-06T22:13:41.885Z,99.90
2018-10-06T22:16:14.746Z,99.90
2018-10-06T22:18:47.844Z,99.90
2018-10-06T22:21:20.669Z,99.90
2018-10-06T22:23:53.636Z,99.90
2018-10-06T22:26:26.738Z,99.90
2018-10-06T22:29:00.239Z,99.90
2018-10-06T22:31:33.569Z,99.90
2018-10-06T22:34:06.678Z,99.90
2018-10-06T22:36:39.735Z,99.90
2018-10-06T22:39:12.558Z,99.90
2018-10-06T22:41:45.342Z,99.90
2018-10-06T22:44:18.186Z,99.90
2018-10-06T22:46:50.994Z,99.90
2018-10-06T22:49:23.850Z,99.90
2018-10-06T22:51:56.830Z,99.90
2018-10-06T22:54:29.891Z,99.90
2018-10-06T22:57:03.398Z,99.90
2018-10-06T22:59:36.757Z,99.90
2018-10-06T23:02:09.926Z,99.90
2018-10-06T23:04:42.792Z,99.90
2018-10-06T23:07:15.670Z,99.90
2018-10-06T23:09:48.444Z,99.90
2018-10-06T23:12:21.371Z,99.90
2018-10-06T23:14:54.503Z,99.90
2018-10-06T23:17:27.346Z,99.90
2018-10-06T23:20:00.473Z,99.90
2018-10-06T23:22:33.656Z,99.90
2018-10-06T23:25:06.824Z,99.90
2018-10-06T23:27:39.989Z,99.90
2018-10-06T23:30:12.993Z,99.90
2018-10-06T23:32:45.793Z,99.90
2018-10-06T23:35:18.595Z,99.90
2018-10-06T23:37:51.457Z,99.90
2018-10-06T23:40:24.730Z,99.90
2018-10-06T23:42:57.767Z,99.90
2018-10-06T23:45:31.062Z,99.90
2018-10-06T23:48:04.446Z,99.90
2018-10-06T23:50:37.705Z,99.90
2018-10-06T23:53:10.481Z,99.90
2018-10-06T23:55:43.408Z,99.90
2018-10-06T23:58:16.218Z,99.90
